Terminal Aerodrome Forecast
Issued by NWS Wakefield, VA

Home | Current Version | Previous Version | Text Only | Print | Product List | Glossary On
Versions: 1 2 3 4 5 6 7 8 9 10 11 12 13 14 15 16 17 18 19 20 21 22 23 24
000
FTUS41 KAKQ 030500
TAFSBY
TAF
KSBY 030535Z 0306/0406 35005KT P6SM SCT250
     FM031500 12005KT P6SM BKN090 OVC150
     FM032100 17007KT 4SM -RA BR OVC040
     FM040000 19008KT 4SM -RA BR SCT009 OVC020=

USA.gov is the U.S. government's official web portal to all federal, state and local government web resources and services.